createdAt,value
2018-10-02T00:00:24.041Z,3.30
2018-10-02T00:02:52.751Z,2.90
2018-10-02T00:05:21.369Z,2.67
2018-10-02T00:07:49.988Z,2.43
2018-10-02T00:10:18.667Z,2.97
2018-10-02T00:12:52.643Z,3.50
2018-10-02T00:15:21.245Z,2.67
2018-10-02T00:17:49.982Z,3.13
2018-10-02T00:20:18.535Z,2.60
2018-10-02T00:22:47.132Z,3.27
2018-10-02T00:25:15.709Z,3.03
2018-10-02T00:27:44.396Z,3.43
2018-10-02T00:30:12.974Z,2.53
2018-10-02T00:32:41.490Z,3.00
2018-10-02T00:35:10.093Z,2.83
2018-10-02T00:37:38.666Z,2.57
2018-10-02T00:40:07.209Z,2.50
2018-10-02T00:42:35.840Z,2.57
2018-10-02T00:45:04.370Z,2.67
2018-10-02T00:47:32.898Z,2.67
2018-10-02T00:50:01.475Z,1.90
2018-10-02T00:52:30.147Z,2.30
2018-10-02T00:54:58.730Z,2.53
2018-10-02T00:57:27.363Z,1.97
2018-10-02T00:59:55.931Z,1.83
2018-10-02T01:02:24.430Z,2.70
2018-10-02T01:04:53.124Z,2.07
2018-10-02T01:07:21.703Z,2.60
2018-10-02T01:09:50.240Z,2.60
2018-10-02T01:12:19.062Z,2.33
2018-10-02T01:14:47.720Z,2.60
2018-10-02T01:17:16.302Z,2.63
2018-10-02T01:19:44.997Z,2.63
2018-10-02T01:22:13.549Z,2.50
2018-10-02T01:24:42.159Z,3.37
2018-10-02T01:27:10.767Z,2.90
2018-10-02T01:29:39.342Z,2.60
2018-10-02T01:32:07.949Z,2.60
2018-10-02T01:34:36.514Z,2.43
2018-10-02T01:37:05.197Z,2.53
2018-10-02T01:39:33.780Z,2.63
2018-10-02T01:42:02.328Z,2.57
2018-10-02T01:44:30.931Z,2.27
2018-10-02T01:46:59.596Z,2.23
2018-10-02T01:49:28.283Z,2.40
2018-10-02T01:51:57.008Z,2.00
2018-10-02T01:54:25.643Z,2.40
2018-10-02T01:56:54.411Z,2.30
2018-10-02T01:59:23.238Z,2.50
2018-10-02T02:01:52.001Z,2.57
2018-10-02T02:04:20.806Z,2.50
2018-10-02T02:06:49.552Z,2.63
2018-10-02T02:09:18.435Z,3.40
2018-10-02T02:11:47.260Z,2.40
2018-10-02T02:14:16.080Z,2.37
2018-10-02T02:16:44.778Z,2.47
2018-10-02T02:19:13.464Z,2.57
2018-10-02T02:21:42.267Z,2.90
2018-10-02T02:24:11.061Z,2.73
2018-10-02T02:26:39.767Z,3.00
2018-10-02T02:29:08.630Z,3.60
2018-10-02T02:31:37.380Z,3.40
2018-10-02T02:34:06.172Z,4.10
2018-10-02T02:36:35.036Z,3.40
2018-10-02T02:39:07.640Z,3.13
2018-10-02T02:41:36.337Z,4.27
2018-10-02T02:44:05.286Z,3.23
2018-10-02T02:46:34.199Z,4.40
2018-10-02T02:49:08.046Z,3.97
2018-10-02T02:51:36.833Z,3.57
2018-10-02T02:54:05.640Z,3.00
2018-10-02T02:56:34.404Z,3.47
2018-10-02T02:59:03.053Z,3.43
2018-10-02T03:01:31.785Z,3.43
2018-10-02T03:04:00.859Z,3.47
2018-10-02T03:06:29.451Z,3.43
2018-10-02T03:08:58.123Z,3.70
2018-10-02T03:11:26.943Z,4.07
2018-10-02T03:13:55.663Z,3.67
2018-10-02T03:16:24.347Z,3.70
2018-10-02T03:18:53.324Z,3.70
2018-10-02T03:21:22.231Z,3.63
2018-10-02T03:23:50.982Z,3.83
2018-10-02T03:26:19.861Z,3.70
2018-10-02T03:28:48.764Z,2.97
2018-10-02T03:31:17.513Z,4.27
2018-10-02T03:33:46.249Z,3.70
2018-10-02T03:36:14.899Z,3.90
2018-10-02T03:38:44.272Z,3.97
2018-10-02T03:41:13.152Z,3.47
2018-10-02T03:43:41.957Z,3.93
2018-10-02T03:46:10.724Z,5.00
2018-10-02T03:48:39.558Z,4.60
2018-10-02T03:51:08.212Z,4.30
2018-10-02T03:53:37.127Z,5.50
2018-10-02T03:56:05.899Z,4.33
2018-10-02T03:58:34.684Z,4.50
2018-10-02T04:01:03.384Z,3.70
2018-10-02T04:03:32.301Z,4.53
2018-10-02T04:06:01.083Z,4.27
2018-10-02T04:08:29.892Z,4.17
2018-10-02T04:10:58.613Z,4.60
2018-10-02T04:13:27.192Z,4.40
2018-10-02T04:15:55.692Z,3.80
2018-10-02T04:18:24.357Z,4.50
2018-10-02T04:20:53.077Z,4.37
2018-10-02T04:23:21.628Z,4.23
2018-10-02T04:25:50.176Z,4.03
2018-10-02T04:28:18.777Z,3.97
2018-10-02T04:30:47.364Z,3.80
2018-10-02T04:33:15.957Z,3.80
2018-10-02T04:35:44.486Z,3.70
2018-10-02T04:38:13.081Z,4.10
2018-10-02T04:40:41.675Z,4.20
2018-10-02T04:43:10.345Z,4.30
2018-10-02T04:45:38.984Z,3.80
2018-10-02T04:48:07.684Z,4.17
2018-10-02T04:50:36.257Z,4.33
2018-10-02T04:53:04.873Z,4.30
2018-10-02T04:55:33.628Z,4.20
2018-10-02T04:58:02.203Z,4.53
2018-10-02T05:00:30.888Z,3.97
2018-10-02T05:02:59.582Z,4.43
2018-10-02T05:05:28.171Z,3.77
2018-10-02T05:07:56.799Z,3.60
2018-10-02T05:10:25.352Z,3.77
2018-10-02T05:12:54.017Z,3.50
2018-10-02T05:15:22.742Z,3.40
2018-10-02T05:17:51.352Z,3.27
2018-10-02T05:20:19.943Z,3.90
2018-10-02T05:22:48.518Z,3.10
2018-10-02T05:25:17.419Z,3.37
2018-10-02T05:27:46.311Z,2.80
2018-10-02T05:30:15.596Z,2.67
2018-10-02T05:32:44.350Z,3.10
2018-10-02T05:35:13.514Z,3.20
2018-10-02T05:37:42.217Z,3.10
2018-10-02T05:40:11.042Z,3.30
2018-10-02T05:42:40.026Z,2.90
2018-10-02T05:45:09.840Z,2.97
2018-10-02T05:47:39.858Z,3.67
2018-10-02T05:50:08.735Z,2.70
2018-10-02T05:52:37.572Z,2.80
2018-10-02T05:55:06.414Z,2.83
2018-10-02T05:57:35.900Z,2.43
2018-10-02T06:00:04.853Z,2.70
2018-10-02T06:02:33.718Z,3.17
2018-10-02T06:05:02.598Z,2.77
2018-10-02T06:07:31.407Z,2.60
2018-10-02T06:10:00.334Z,2.87
2018-10-02T06:12:29.144Z,3.37
2018-10-02T06:14:57.962Z,2.10
2018-10-02T06:17:26.624Z,3.00
2018-10-02T06:19:55.488Z,2.60
2018-10-02T06:22:24.339Z,2.53
2018-10-02T06:24:52.981Z,2.70
2018-10-02T06:27:21.703Z,2.67
2018-10-02T06:29:50.385Z,3.30
2018-10-02T06:32:19.167Z,2.93
2018-10-02T06:34:47.719Z,2.60
2018-10-02T06:37:16.738Z,3.03
2018-10-02T06:39:45.626Z,2.30
2018-10-02T06:42:14.745Z,2.97
2018-10-02T06:44:43.402Z,2.50
2018-10-02T06:47:12.716Z,2.47
2018-10-02T06:49:41.425Z,2.50
2018-10-02T06:52:10.165Z,2.20
2018-10-02T06:54:38.543Z,2.77
2018-10-02T06:57:07.566Z,2.97
2018-10-02T06:59:37.467Z,2.17
2018-10-02T07:02:06.177Z,2.80
2018-10-02T07:04:34.661Z,2.60
2018-10-02T07:07:03.719Z,2.50
2018-10-02T07:09:42.008Z,2.47
2018-10-02T07:12:10.579Z,2.50
2018-10-02T07:14:41.101Z,2.43
2018-10-02T07:17:10.280Z,2.80
2018-10-02T07:19:41.766Z,2.50
2018-10-02T07:22:10.612Z,2.60
2018-10-02T07:24:39.553Z,2.20
2018-10-02T07:27:08.322Z,2.83
2018-10-02T07:29:36.933Z,2.63
2018-10-02T07:32:05.577Z,2.63
2018-10-02T07:34:34.513Z,2.20
2018-10-02T07:37:03.227Z,2.10
2018-10-02T07:39:31.784Z,2.37
2018-10-02T07:42:00.668Z,2.80
2018-10-02T07:44:29.616Z,2.93
2018-10-02T07:46:58.334Z,2.60
2018-10-02T07:49:26.936Z,2.57
2018-10-02T07:51:55.878Z,2.97
2018-10-02T07:54:25.008Z,2.33
2018-10-02T07:56:54.003Z,2.90
2018-10-02T07:59:23.081Z,2.80
2018-10-02T08:01:51.904Z,3.70
2018-10-02T08:04:20.579Z,2.20
2018-10-02T08:06:50.203Z,2.80
2018-10-02T08:09:19.034Z,3.27
2018-10-02T08:11:47.933Z,3.17
2018-10-02T08:14:16.664Z,3.37
2018-10-02T08:16:45.412Z,3.40
2018-10-02T08:19:14.141Z,4.00
2018-10-02T08:21:43.547Z,3.70
2018-10-02T08:24:12.598Z,3.50
2018-10-02T08:26:41.368Z,3.93
2018-10-02T08:29:09.938Z,4.23
2018-10-02T08:31:38.647Z,4.10
2018-10-02T08:34:07.160Z,4.47
2018-10-02T08:36:35.752Z,3.70
2018-10-02T08:39:05.669Z,3.90
2018-10-02T08:41:34.170Z,4.40
2018-10-02T08:44:02.739Z,4.07
2018-10-02T08:46:31.292Z,3.57
2018-10-02T08:49:00.087Z,3.80
2018-10-02T08:51:28.881Z,4.03
2018-10-02T08:53:57.696Z,3.80
2018-10-02T08:56:26.269Z,3.10
2018-10-02T08:58:54.866Z,3.83
2018-10-02T09:01:23.465Z,4.27
2018-10-02T09:03:52.011Z,3.70
2018-10-02T09:06:21.813Z,3.73
2018-10-02T09:08:50.352Z,3.63
2018-10-02T09:11:18.992Z,4.17
2018-10-02T09:13:47.611Z,3.93
2018-10-02T09:16:16.189Z,4.50
2018-10-02T09:18:44.774Z,4.00
2018-10-02T09:21:13.327Z,4.30
2018-10-02T09:23:41.976Z,4.70
2018-10-02T09:26:10.521Z,4.33
2018-10-02T09:28:39.278Z,4.60
2018-10-02T09:31:12.933Z,3.90
2018-10-02T09:33:46.778Z,4.30
2018-10-02T09:36:20.437Z,4.83
2018-10-02T09:41:00.538Z,3.73
2018-10-02T09:43:37.334Z,3.63
2018-10-02T09:46:05.887Z,3.47
2018-10-02T09:48:34.464Z,3.77
2018-10-02T09:51:03.146Z,3.73
2018-10-02T09:53:31.663Z,3.77
2018-10-02T09:56:00.239Z,3.97
2018-10-02T09:58:28.773Z,4.00
2018-10-02T10:01:02.626Z,3.23
2018-10-02T10:03:31.092Z,3.93
2018-10-02T10:05:59.600Z,3.37
2018-10-02T10:08:28.105Z,2.90
2018-10-02T10:10:56.639Z,3.10
2018-10-02T10:13:25.077Z,2.93
2018-10-02T10:15:53.551Z,3.00
2018-10-02T10:18:22.055Z,3.80
2018-10-02T10:20:50.551Z,3.83
2018-10-02T10:23:18.976Z,3.43
2018-10-02T10:25:47.489Z,2.70
2018-10-02T10:28:15.972Z,2.53
2018-10-02T10:30:44.414Z,2.73
2018-10-02T10:33:13.021Z,2.00
2018-10-02T10:35:41.532Z,2.10
2018-10-02T10:38:11.268Z,2.30
2018-10-02T10:40:40.162Z,2.30
2018-10-02T10:43:08.730Z,2.43
2018-10-02T10:45:37.440Z,2.53
2018-10-02T10:48:05.953Z,2.37
2018-10-02T10:50:34.475Z,2.00
2018-10-02T10:53:03.013Z,2.57
2018-10-02T10:55:33.542Z,2.60
2018-10-02T10:58:02.060Z,3.10
2018-10-02T11:00:30.911Z,2.30
2018-10-02T11:02:59.431Z,2.20
2018-10-02T11:05:27.899Z,2.50
2018-10-02T11:07:56.331Z,2.83
2018-10-02T11:10:24.824Z,2.60
2018-10-02T11:12:53.404Z,2.90
2018-10-02T11:15:22.687Z,2.50
2018-10-02T11:17:51.502Z,2.83
2018-10-02T11:20:23.288Z,2.90
2018-10-02T11:22:51.829Z,3.60
2018-10-02T11:25:20.310Z,3.47
2018-10-02T11:27:48.804Z,3.90
2018-10-02T11:30:17.363Z,3.43
2018-10-02T11:32:45.870Z,4.97
2018-10-02T11:35:14.564Z,4.47
2018-10-02T11:37:43.359Z,4.17
2018-10-02T11:40:11.923Z,3.97
2018-10-02T11:42:47.120Z,4.53
2018-10-02T11:45:15.663Z,3.73
2018-10-02T11:47:44.355Z,3.47
2018-10-02T11:50:13.003Z,4.20
2018-10-02T11:52:41.756Z,4.30
2018-10-02T11:55:10.010Z,4.10
2018-10-02T11:57:40.536Z,3.67
2018-10-02T12:00:09.270Z,3.80
2018-10-02T12:02:38.231Z,3.10
2018-10-02T12:05:08.268Z,3.23
2018-10-02T12:07:36.894Z,3.23
2018-10-02T12:10:05.835Z,4.07
2018-10-02T12:12:35.879Z,3.90
2018-10-02T12:15:05.461Z,3.20
2018-10-02T12:17:34.368Z,3.13
2018-10-02T12:20:03.193Z,3.73
2018-10-02T12:22:31.889Z,3.67
2018-10-02T12:28:03.679Z,3.37
2018-10-02T12:30:32.251Z,3.23
2018-10-02T12:33:00.953Z,3.67
2018-10-02T12:35:31.190Z,3.50
2018-10-02T12:38:02.996Z,3.90
2018-10-02T12:40:32.691Z,5.17
2018-10-02T12:43:01.803Z,3.80
2018-10-02T12:45:31.516Z,3.60
2018-10-02T12:48:00.461Z,3.70
2018-10-02T12:50:29.004Z,4.67
2018-10-02T12:53:00.147Z,4.10
2018-10-02T12:55:28.769Z,3.67
2018-10-02T12:57:58.474Z,4.23
2018-10-02T13:00:27.102Z,4.83
2018-10-02T13:02:56.639Z,5.93
2018-10-02T13:05:25.278Z,5.70
2018-10-02T13:07:53.824Z,5.97
2018-10-02T13:10:22.405Z,5.97
2018-10-02T13:12:51.010Z,5.53
2018-10-02T13:15:19.742Z,5.90
2018-10-02T13:17:48.438Z,5.13
2018-10-02T13:20:17.058Z,5.03
2018-10-02T13:22:45.899Z,6.03
2018-10-02T13:25:14.560Z,5.37
2018-10-02T13:27:43.243Z,4.90
2018-10-02T13:30:11.706Z,5.10
2018-10-02T13:32:40.436Z,6.50
2018-10-02T13:35:09.012Z,7.83
2018-10-02T13:37:37.585Z,7.00
2018-10-02T13:42:39.990Z,8.27
2018-10-02T13:45:09.551Z,8.87
2018-10-02T13:47:38.323Z,9.47
2018-10-02T13:50:07.022Z,9.93
2018-10-02T13:52:35.720Z,9.97
2018-10-02T13:55:04.469Z,9.27
2018-10-02T14:00:17.675Z,9.40
2018-10-02T14:02:46.407Z,9.53
2018-10-02T14:05:22.249Z,8.77
2018-10-02T14:07:51.054Z,10.10
2018-10-02T14:10:20.135Z,9.30
2018-10-02T14:12:49.620Z,8.83
2018-10-02T14:15:18.364Z,8.37
2018-10-02T14:17:47.099Z,7.67
2018-10-02T14:20:16.004Z,8.83
2018-10-02T14:22:44.998Z,8.13
2018-10-02T14:25:16.167Z,8.80
2018-10-02T14:30:41.345Z,9.97
2018-10-02T14:33:11.872Z,8.60
2018-10-02T14:35:40.702Z,9.53
2018-10-02T14:38:09.336Z,9.47
2018-10-02T14:40:38.299Z,9.77
2018-10-02T14:43:07.145Z,9.97
2018-10-02T14:45:35.836Z,10.63
2018-10-02T14:48:04.501Z,10.60
2018-10-02T14:50:33.519Z,11.33
2018-10-02T14:53:02.891Z,11.30
2018-10-02T14:55:32.294Z,11.37
2018-10-02T14:58:00.939Z,12.90
2018-10-02T15:00:30.047Z,12.67
2018-10-02T15:02:59.789Z,14.27
2018-10-02T15:05:29.191Z,13.17
2018-10-02T15:07:58.016Z,13.03
2018-10-02T15:10:29.733Z,13.00
2018-10-02T15:12:59.340Z,13.20
2018-10-02T15:15:28.010Z,13.77
2018-10-02T15:17:56.598Z,13.50
2018-10-02T15:20:27.734Z,14.30
2018-10-02T15:22:56.315Z,15.80
2018-10-02T15:25:25.019Z,15.57
2018-10-02T15:27:53.705Z,14.90
2018-10-02T15:30:22.852Z,13.57
2018-10-02T15:32:51.656Z,12.97
2018-10-02T15:35:20.244Z,13.50
2018-10-02T15:37:49.052Z,12.77
2018-10-02T15:40:17.558Z,13.10
2018-10-02T15:42:46.084Z,13.00
2018-10-02T15:45:14.673Z,14.53
2018-10-02T15:47:43.195Z,13.20
2018-10-02T15:50:11.735Z,14.03
2018-10-02T15:52:41.459Z,13.93
2018-10-02T15:55:10.158Z,13.80
2018-10-02T15:57:40.177Z,12.93
2018-10-02T16:00:09.105Z,13.73
2018-10-02T16:02:38.502Z,14.27
2018-10-02T16:05:07.298Z,14.20
2018-10-02T16:07:36.393Z,14.33
2018-10-02T16:10:05.345Z,13.50
2018-10-02T16:12:33.931Z,14.37
2018-10-02T16:15:02.962Z,13.10
2018-10-02T16:17:31.939Z,13.20
2018-10-02T16:20:01.514Z,13.93
2018-10-02T16:22:30.884Z,13.67
2018-10-02T16:24:59.551Z,13.17
2018-10-02T16:27:28.079Z,13.87
2018-10-02T16:29:57.448Z,13.00
2018-10-02T16:32:33.118Z,14.00
2018-10-02T16:35:03.612Z,13.97
2018-10-02T16:37:34.592Z,14.27
2018-10-02T16:40:04.013Z,13.03
2018-10-02T16:42:33.121Z,13.90
2018-10-02T16:45:01.672Z,14.27
2018-10-02T16:47:31.312Z,15.27
2018-10-02T16:50:01.018Z,12.70
2018-10-02T16:52:31.448Z,13.47
2018-10-02T16:55:05.650Z,13.47
2018-10-02T16:57:36.659Z,13.87
2018-10-02T17:00:07.252Z,14.10
2018-10-02T17:02:36.884Z,13.53
2018-10-02T17:05:06.577Z,14.50
2018-10-02T17:07:36.309Z,14.13
2018-10-02T17:10:07.478Z,14.03
2018-10-02T17:12:38.355Z,15.67
2018-10-02T17:15:08.406Z,15.30
2018-10-02T17:17:39.942Z,15.60
2018-10-02T17:20:08.666Z,16.07
2018-10-02T17:22:37.796Z,14.93
2018-10-02T17:25:06.502Z,15.97
2018-10-02T17:27:35.150Z,14.63
2018-10-02T17:30:03.817Z,16.27
2018-10-02T17:32:32.687Z,14.37
2018-10-02T17:35:01.681Z,14.03
2018-10-02T17:37:30.371Z,13.23
2018-10-02T17:39:59.986Z,14.03
2018-10-02T17:42:30.439Z,14.27
2018-10-02T17:44:59.342Z,14.40
2018-10-02T17:47:27.993Z,14.83
2018-10-02T17:49:56.687Z,14.37
2018-10-02T17:52:25.475Z,13.73
2018-10-02T17:54:54.418Z,14.87
2018-10-02T17:57:22.984Z,13.70
2018-10-02T17:59:51.860Z,13.00
2018-10-02T18:02:58.535Z,13.83
2018-10-02T18:05:27.215Z,13.33
2018-10-02T18:07:55.982Z,12.53
2018-10-02T18:10:24.721Z,13.40
2018-10-02T18:12:53.308Z,14.47
2018-10-02T18:15:22.125Z,14.10
2018-10-02T18:17:50.721Z,11.43
2018-10-02T18:20:19.403Z,11.97
2018-10-02T18:22:48.464Z,12.10
2018-10-02T18:25:17.089Z,11.40
2018-10-02T18:27:45.832Z,11.93
2018-10-02T18:30:14.391Z,11.23
2018-10-02T18:32:42.943Z,11.97
2018-10-02T18:35:11.523Z,14.23
2018-10-02T18:37:40.144Z,15.30
2018-10-02T18:40:08.789Z,14.00
2018-10-02T18:42:37.697Z,14.63
2018-10-02T18:45:06.370Z,12.97
2018-10-02T18:47:35.051Z,12.47
2018-10-02T18:50:03.678Z,12.03
2018-10-02T18:52:32.220Z,11.70
2018-10-02T18:55:00.763Z,11.57
2018-10-02T18:57:29.353Z,12.20
2018-10-02T18:59:58.026Z,11.77
2018-10-02T19:02:26.615Z,10.33
2018-10-02T19:04:55.541Z,9.93
2018-10-02T19:07:24.374Z,9.67
2018-10-02T19:09:52.997Z,8.50
2018-10-02T19:12:22.201Z,8.83
2018-10-02T19:14:50.900Z,8.23
2018-10-02T19:17:19.510Z,8.87
2018-10-02T19:19:53.096Z,9.70
2018-10-02T19:22:21.878Z,9.00
2018-10-02T19:24:50.674Z,9.47
2018-10-02T19:27:19.218Z,10.40
2018-10-02T19:29:51.855Z,9.67
2018-10-02T19:32:20.416Z,9.37
2018-10-02T19:34:49.094Z,8.60
2018-10-02T19:37:22.693Z,9.00
2018-10-02T19:39:51.249Z,9.40
2018-10-02T19:42:19.753Z,8.57
2018-10-02T19:44:48.328Z,9.13
2018-10-02T19:47:16.944Z,9.50
2018-10-02T19:49:45.463Z,8.87
2018-10-02T19:52:15.151Z,8.10
2018-10-02T19:54:44.080Z,8.90
2018-10-02T19:57:15.441Z,8.90
2018-10-02T19:59:44.040Z,8.63
2018-10-02T20:02:12.746Z,8.00
2018-10-02T20:04:41.646Z,8.47
2018-10-02T20:07:11.499Z,9.20
2018-10-02T20:09:41.484Z,8.40
2018-10-02T20:12:11.686Z,8.03
2018-10-02T20:14:41.802Z,8.10
2018-10-02T20:17:11.489Z,7.40
2018-10-02T20:19:40.189Z,12.10
2018-10-02T20:22:09.750Z,6.53
2018-10-02T20:24:38.509Z,6.97
2018-10-02T20:27:07.211Z,6.40
2018-10-02T20:29:35.871Z,6.50
2018-10-02T20:32:04.697Z,12.43
2018-10-02T20:34:33.349Z,7.37
2018-10-02T20:37:02.059Z,7.30
2018-10-02T20:39:30.784Z,6.20
2018-10-02T20:41:59.533Z,6.97
2018-10-02T20:44:28.244Z,6.10
2018-10-02T20:46:57.100Z,7.50
2018-10-02T20:49:25.932Z,6.83
2018-10-02T20:51:54.767Z,6.80
2018-10-02T20:54:23.505Z,7.00
2018-10-02T20:56:52.211Z,7.30
2018-10-02T20:59:21.247Z,7.57
2018-10-02T21:01:53.285Z,7.43
2018-10-02T21:04:22.113Z,7.57
2018-10-02T21:06:50.788Z,7.53
2018-10-02T21:09:19.606Z,7.63
2018-10-02T21:11:48.276Z,6.97
2018-10-02T21:14:17.696Z,6.60
2018-10-02T21:16:46.494Z,6.77
2018-10-02T21:19:15.229Z,6.80
2018-10-02T21:21:44.148Z,6.60
2018-10-02T21:24:12.800Z,6.50
2018-10-02T21:26:41.388Z,6.57
2018-10-02T21:29:10.057Z,6.77
2018-10-02T21:31:39.984Z,6.77
2018-10-02T21:34:08.495Z,6.17
2018-10-02T21:36:36.977Z,6.53
2018-10-02T21:39:09.780Z,6.33
2018-10-02T21:41:38.285Z,7.10
2018-10-02T21:44:06.844Z,7.50
2018-10-02T21:46:35.261Z,7.80
2018-10-02T21:49:03.772Z,6.83
2018-10-02T21:51:32.173Z,7.07
2018-10-02T21:54:00.655Z,7.53
2018-10-02T21:56:29.142Z,7.27
2018-10-02T21:58:57.603Z,6.87
2018-10-02T22:01:32.416Z,7.40
2018-10-02T22:04:00.943Z,7.17
2018-10-02T22:06:29.369Z,7.27
2018-10-02T22:08:57.874Z,6.70
2018-10-02T22:11:26.388Z,7.20
2018-10-02T22:13:54.984Z,7.27
2018-10-02T22:16:23.412Z,8.60
2018-10-02T22:18:51.882Z,7.40
2018-10-02T22:21:20.377Z,8.20
2018-10-02T22:23:48.932Z,7.90
2018-10-02T22:26:17.497Z,7.93
2018-10-02T22:28:46.324Z,8.53
2018-10-02T22:31:14.789Z,8.50
2018-10-02T22:33:43.388Z,8.03
2018-10-02T22:36:11.852Z,8.30
2018-10-02T22:38:40.351Z,9.07
2018-10-02T22:41:08.820Z,7.87
2018-10-02T22:43:37.300Z,8.37
2018-10-02T22:46:06.343Z,7.87
2018-10-02T22:48:34.818Z,9.40
2018-10-02T22:51:03.261Z,8.07
2018-10-02T22:53:31.736Z,8.80
2018-10-02T22:56:00.320Z,8.67
2018-10-02T22:58:28.878Z,9.67
2018-10-02T23:00:57.356Z,9.10
2018-10-02T23:03:25.873Z,8.97
2018-10-02T23:05:54.874Z,10.40
2018-10-02T23:08:23.436Z,10.33
2018-10-02T23:10:51.965Z,10.23
2018-10-02T23:13:20.446Z,10.77
2018-10-02T23:15:49.037Z,10.60
2018-10-02T23:18:17.589Z,10.67
2018-10-02T23:20:46.165Z,10.20
2018-10-02T23:23:14.771Z,11.47
2018-10-02T23:25:43.355Z,10.37
2018-10-02T23:28:11.972Z,10.53
2018-10-02T23:30:40.779Z,10.07
2018-10-02T23:33:09.395Z,10.27
2018-10-02T23:35:37.918Z,10.13
2018-10-02T23:38:06.632Z,10.77
2018-10-02T23:40:35.423Z,10.17
2018-10-02T23:43:04.059Z,10.90
2018-10-02T23:45:32.804Z,10.53
2018-10-02T23:48:01.497Z,10.70
2018-10-02T23:50:30.019Z,10.93
2018-10-02T23:52:58.710Z,11.07
2018-10-02T23:55:27.394Z,10.97
2018-10-02T23:57:55.928Z,10.90
